createdAt,value
2023-02-19T00:00:18.604Z,101914.94
2023-02-19T00:03:03.803Z,101923.78
2023-02-19T00:05:49.071Z,101942.38
2023-02-19T00:08:36.130Z,101931.31
2023-02-19T00:11:23.700Z,101939.28
2023-02-19T00:14:10.486Z,101936.72
2023-02-19T00:16:55.823Z,101934.25
2023-02-19T00:19:41.102Z,101949.25
2023-02-19T00:22:26.120Z,101940.78
2023-02-19T00:25:10.960Z,101941.03
2023-02-19T00:27:56.080Z,101948.06
2023-02-19T00:30:41.259Z,101931.91
2023-02-19T00:33:28.611Z,101954.16
2023-02-19T00:36:14.959Z,101963.09
2023-02-19T00:39:00.178Z,101961.34
2023-02-19T00:41:46.544Z,101956.38
2023-02-19T00:44:31.837Z,101970.25
2023-02-19T00:47:17.090Z,101977.47
2023-02-19T00:50:02.345Z,101981.00
2023-02-19T00:52:47.283Z,101986.16
2023-02-19T00:55:32.479Z,101977.19
2023-02-19T00:58:17.620Z,101996.88
2023-02-19T01:01:03.335Z,101993.47
2023-02-19T01:03:49.296Z,101998.09
2023-02-19T01:06:35.302Z,102002.50
2023-02-19T01:09:20.317Z,102006.75
2023-02-19T01:12:06.458Z,102004.22
2023-02-19T01:14:51.550Z,102020.47
2023-02-19T01:17:36.683Z,102029.81
2023-02-19T01:20:21.942Z,102017.91
2023-02-19T01:23:07.411Z,102020.13
2023-02-19T01:25:52.485Z,102029.56
2023-02-19T01:28:37.737Z,102026.03
2023-02-19T01:31:24.609Z,102025.13
2023-02-19T01:34:11.044Z,102018.41
2023-02-19T01:36:56.026Z,102025.06
2023-02-19T01:39:40.951Z,102021.53
2023-02-19T01:42:26.180Z,102020.66
2023-02-19T01:45:29.881Z,102009.22
2023-02-19T01:48:20.913Z,102012.94
2023-02-19T01:51:11.191Z,102022.75
2023-02-19T01:54:00.201Z,102009.28
2023-02-19T01:56:48.314Z,102010.50
2023-02-19T01:59:34.450Z,102030.19
2023-02-19T02:02:19.624Z,102023.56
2023-02-19T02:05:10.414Z,102046.97
2023-02-19T02:08:14.504Z,102047.75
2023-02-19T02:11:00.886Z,102048.56
2023-02-19T02:13:46.237Z,102053.03
2023-02-19T02:16:39.939Z,102040.88
2023-02-19T02:20:03.201Z,102050.25
2023-02-19T02:22:57.747Z,102031.31
2023-02-19T02:25:58.193Z,102050.13
2023-02-19T02:29:22.209Z,102046.00
2023-02-19T02:32:16.141Z,102013.81
2023-02-19T02:35:07.497Z,102041.25
2023-02-19T02:37:56.929Z,102048.31
2023-02-19T02:40:44.978Z,102044.91
2023-02-19T02:43:31.580Z,102043.31
2023-02-19T02:46:23.568Z,102053.84
2023-02-19T02:49:17.191Z,102055.66
2023-02-19T02:52:22.579Z,102054.94
2023-02-19T02:55:10.895Z,102070.78
2023-02-19T02:57:56.025Z,102069.22
2023-02-19T03:01:02.970Z,102070.06
2023-02-19T03:03:54.729Z,102065.19
2023-02-19T03:06:43.614Z,102060.94
2023-02-19T03:09:40.721Z,102068.78
2023-02-19T03:12:47.583Z,102068.81
2023-02-19T03:15:57.619Z,102061.34
2023-02-19T03:19:04.920Z,102074.19
2023-02-19T03:22:03.122Z,102083.06
2023-02-19T03:25:19.392Z,102043.91
2023-02-19T03:28:08.341Z,102077.31
2023-02-19T03:30:55.427Z,102090.38
2023-02-19T03:33:43.191Z,102081.84
2023-02-19T03:36:37.757Z,102090.66
2023-02-19T03:39:23.788Z,102096.78
2023-02-19T03:42:21.693Z,102102.94
2023-02-19T03:45:30.486Z,102104.75
2023-02-19T03:48:29.406Z,102100.53
2023-02-19T03:51:25.165Z,102100.63
2023-02-19T03:54:28.503Z,102115.38
2023-02-19T03:57:23.600Z,102094.84
2023-02-19T04:00:35.835Z,102112.00
2023-02-19T04:03:29.463Z,102115.47
2023-02-19T04:06:19.674Z,102123.38
2023-02-19T04:09:08.707Z,102127.66
2023-02-19T04:11:55.160Z,102127.75
2023-02-19T04:14:46.907Z,102124.13
2023-02-19T04:17:39.246Z,102108.00
2023-02-19T04:20:27.274Z,102132.97
2023-02-19T04:23:14.645Z,102134.88
2023-02-19T04:26:01.205Z,102117.94
2023-02-19T04:28:46.814Z,102140.28
2023-02-19T04:31:35.322Z,102142.13
2023-02-19T04:34:20.376Z,102154.41
2023-02-19T04:37:06.019Z,102142.53
2023-02-19T04:39:50.989Z,102163.19
2023-02-19T04:42:36.242Z,102162.41
2023-02-19T04:45:21.340Z,102169.56
2023-02-19T04:48:06.649Z,102185.22
2023-02-19T04:50:51.508Z,102192.31
2023-02-19T04:53:37.452Z,102182.84
2023-02-19T04:56:22.705Z,102197.66
2023-02-19T04:59:07.792Z,102201.06
2023-02-19T05:01:52.964Z,102206.22
2023-02-19T05:04:37.974Z,102207.78
2023-02-19T05:07:23.073Z,102206.81
2023-02-19T05:10:08.349Z,102199.91
2023-02-19T05:12:56.863Z,102194.81
2023-02-19T05:15:42.992Z,102202.56
2023-02-19T05:18:28.459Z,102223.50
2023-02-19T05:21:14.652Z,102228.56
2023-02-19T05:23:59.968Z,102220.66
2023-02-19T05:26:45.552Z,102225.78
2023-02-19T05:29:32.030Z,102208.72
2023-02-19T05:32:17.220Z,102224.91
2023-02-19T05:35:02.085Z,102199.19
2023-02-19T05:37:47.330Z,102206.13
2023-02-19T05:40:32.255Z,102234.44
2023-02-19T05:43:18.173Z,102246.56
2023-02-19T05:46:03.382Z,102249.09
2023-02-19T05:48:49.509Z,102248.16
2023-02-19T05:51:34.529Z,102244.66
2023-02-19T05:54:19.483Z,102242.16
2023-02-19T05:57:04.461Z,102244.06
2023-02-19T05:59:49.330Z,102246.78
2023-02-19T06:02:34.700Z,102244.41
2023-02-19T06:05:20.045Z,102229.16
2023-02-19T06:08:05.493Z,102245.34
2023-02-19T06:10:50.809Z,102211.41
2023-02-19T06:13:35.996Z,102243.94
2023-02-19T06:16:22.120Z,102244.94
2023-02-19T06:19:07.172Z,102249.44
2023-02-19T06:21:52.476Z,102248.63
2023-02-19T06:24:37.812Z,102253.94
2023-02-19T06:27:23.023Z,102264.47
2023-02-19T06:30:09.059Z,102268.88
2023-02-19T06:32:54.382Z,102246.75
2023-02-19T06:35:39.340Z,102245.06
2023-02-19T06:38:24.982Z,102270.94
2023-02-19T06:41:11.372Z,102262.31
2023-02-19T06:43:58.547Z,102271.88
2023-02-19T06:46:43.801Z,102267.69
2023-02-19T06:49:29.287Z,102273.13
2023-02-19T06:52:14.683Z,102281.69
2023-02-19T06:54:59.795Z,102276.50
2023-02-19T06:57:44.915Z,102289.53
2023-02-19T07:00:30.215Z,102287.03
2023-02-19T07:03:15.444Z,102296.63
2023-02-19T07:06:00.965Z,102295.75
2023-02-19T07:08:46.389Z,102287.97
2023-02-19T07:11:33.980Z,102274.25
2023-02-19T07:14:19.192Z,102300.91
2023-02-19T07:17:04.505Z,102308.81
2023-02-19T07:19:49.519Z,102303.56
2023-02-19T07:22:34.509Z,102312.34
2023-02-19T07:25:19.714Z,102322.69
2023-02-19T07:28:04.955Z,102329.66
2023-02-19T07:30:50.445Z,102328.72
2023-02-19T07:33:35.622Z,102304.72
2023-02-19T07:36:23.693Z,102341.66
2023-02-19T07:39:13.101Z,102344.19
2023-02-19T07:41:58.549Z,102353.69
2023-02-19T07:44:43.581Z,102356.22
2023-02-19T07:47:29.562Z,102356.13
2023-02-19T07:50:14.532Z,102366.47
2023-02-19T07:52:59.878Z,102375.13
2023-02-19T07:55:45.024Z,102375.09
2023-02-19T07:58:30.695Z,102350.06
2023-02-19T08:01:39.911Z,102344.09
2023-02-19T08:04:25.259Z,102379.81
2023-02-19T08:07:10.577Z,102399.63
2023-02-19T08:10:15.797Z,102389.19
2023-02-19T08:13:19.433Z,102365.84
2023-02-19T08:16:16.348Z,102369.28
2023-02-19T08:19:02.539Z,102395.03
2023-02-19T08:21:47.720Z,102389.72
2023-02-19T08:24:33.883Z,102391.47
2023-02-19T08:27:18.958Z,102402.66
2023-02-19T08:30:05.481Z,102405.09
2023-02-19T08:32:50.683Z,102398.03
2023-02-19T08:35:36.630Z,102409.97
2023-02-19T08:38:21.774Z,102417.75
2023-02-19T08:41:09.748Z,102407.16
2023-02-19T08:43:55.326Z,102434.16
2023-02-19T08:46:40.490Z,102450.75
2023-02-19T08:49:28.542Z,102445.50
2023-02-19T08:52:13.863Z,102448.91
2023-02-19T08:54:59.466Z,102440.19
2023-02-19T08:57:45.049Z,102433.34
2023-02-19T09:00:30.306Z,102435.59
2023-02-19T09:03:15.636Z,102442.41
2023-02-19T09:06:00.803Z,102435.19
2023-02-19T09:08:46.137Z,102433.50
2023-02-19T09:11:31.373Z,102423.28
2023-02-19T09:14:16.535Z,102436.97
2023-02-19T09:17:04.337Z,102433.50
2023-02-19T09:19:50.859Z,102429.03
2023-02-19T09:22:36.097Z,102428.09
2023-02-19T09:25:21.420Z,102441.09
2023-02-19T09:28:06.793Z,102427.22
2023-02-19T09:30:52.105Z,102445.53
2023-02-19T09:33:37.338Z,102439.63
2023-02-19T09:36:22.293Z,102438.53
2023-02-19T09:39:10.460Z,102467.41
2023-02-19T09:42:01.216Z,102459.97
2023-02-19T09:44:51.725Z,102471.72
2023-02-19T09:47:36.827Z,102443.91
2023-02-19T09:50:30.332Z,102460.59
2023-02-19T09:53:27.222Z,102444.22
2023-02-19T09:56:12.279Z,102444.84
2023-02-19T09:58:59.485Z,102458.22
2023-02-19T10:01:45.343Z,102475.97
2023-02-19T10:04:30.380Z,102469.94
2023-02-19T10:07:18.098Z,102483.44
2023-02-19T10:10:17.930Z,102480.75
2023-02-19T10:13:28.726Z,102511.56
2023-02-19T10:16:19.443Z,102495.09
2023-02-19T10:19:05.149Z,102491.72
2023-02-19T10:21:50.153Z,102508.34
2023-02-19T10:24:37.564Z,102500.25
2023-02-19T10:27:29.157Z,102502.69
2023-02-19T10:30:21.800Z,102496.56
2023-02-19T10:33:16.713Z,102510.13
2023-02-19T10:36:07.730Z,102488.94
2023-02-19T10:38:53.311Z,102494.69
2023-02-19T10:41:44.048Z,102505.78
2023-02-19T10:44:38.394Z,102510.56
2023-02-19T10:47:26.422Z,102514.47
2023-02-19T10:50:48.053Z,102512.19
2023-02-19T10:53:48.900Z,102522.31
2023-02-19T10:56:34.071Z,102528.09
2023-02-19T10:59:18.963Z,102529.06
2023-02-19T11:02:17.376Z,102523.28
2023-02-19T11:05:18.216Z,102522.00
2023-02-19T11:08:03.278Z,102523.28
2023-02-19T11:10:49.856Z,102531.06
2023-02-19T11:13:38.011Z,102520.28
2023-02-19T11:16:42.198Z,102508.75
2023-02-19T11:19:37.314Z,102530.06
2023-02-19T11:22:35.524Z,102533.72
2023-02-19T11:25:25.635Z,102534.22
2023-02-19T11:28:17.856Z,102528.09
2023-02-19T11:31:23.589Z,102525.28
2023-02-19T11:34:14.808Z,102514.97
2023-02-19T11:37:10.706Z,102530.28
2023-02-19T11:39:55.762Z,102516.63
2023-02-19T11:43:12.327Z,102508.78
2023-02-19T11:46:24.862Z,102526.56
2023-02-19T11:49:34.020Z,102522.25
2023-02-19T11:52:22.434Z,102520.59
2023-02-19T11:55:16.443Z,102509.81
2023-02-19T11:58:21.651Z,102544.03
2023-02-19T12:01:31.554Z,102552.22
2023-02-19T12:04:47.718Z,102510.03
2023-02-19T12:07:38.869Z,102541.59
2023-02-19T12:10:52.879Z,102528.47
2023-02-19T12:13:53.483Z,102511.63
2023-02-19T12:16:55.900Z,102511.34
2023-02-19T12:19:53.222Z,102508.34
2023-02-19T12:23:00.204Z,102498.66
2023-02-19T12:25:57.092Z,102480.94
2023-02-19T12:29:12.834Z,102488.22
2023-02-19T12:32:16.585Z,102475.97
2023-02-19T12:35:23.666Z,102470.94
2023-02-19T12:38:11.641Z,102479.31
2023-02-19T12:41:06.113Z,102487.47
2023-02-19T12:44:00.539Z,102480.53
2023-02-19T12:46:52.057Z,102492.09
2023-02-19T12:49:42.536Z,102494.31
2023-02-19T12:52:34.473Z,102483.97
2023-02-19T12:55:27.199Z,102483.31
2023-02-19T12:58:33.825Z,102490.72
2023-02-19T13:01:26.389Z,102499.81
2023-02-19T13:04:21.986Z,102463.16
2023-02-19T13:07:31.552Z,102490.50
2023-02-19T13:10:26.704Z,102485.22
2023-02-19T13:13:30.727Z,102492.00
2023-02-19T13:16:19.059Z,102490.22
2023-02-19T13:19:05.518Z,102498.72
2023-02-19T13:22:35.195Z,102489.88
2023-02-19T13:25:21.123Z,102499.03
2023-02-19T13:28:40.161Z,102496.72
2023-02-19T13:32:06.890Z,102495.94
2023-02-19T13:35:06.320Z,102499.34
2023-02-19T13:37:53.247Z,102483.25
2023-02-19T13:40:52.883Z,102501.84
2023-02-19T13:43:39.096Z,102499.28
2023-02-19T13:46:25.333Z,102492.63
2023-02-19T13:49:36.923Z,102476.38
2023-02-19T13:52:33.727Z,102482.16
2023-02-19T13:55:47.125Z,102477.03
2023-02-19T13:58:32.522Z,102451.56
2023-02-19T14:01:18.497Z,102467.56
2023-02-19T14:04:37.270Z,102479.66
2023-02-19T14:07:28.284Z,102477.31
2023-02-19T14:10:50.430Z,102487.28
2023-02-19T14:13:47.693Z,102489.16
2023-02-19T14:16:50.445Z,102480.19
2023-02-19T14:19:41.587Z,102472.03
2023-02-19T14:22:45.053Z,102465.50
2023-02-19T14:25:39.788Z,102458.63
2023-02-19T14:28:37.991Z,102446.81
2023-02-19T14:31:31.991Z,102437.91
2023-02-19T14:34:23.616Z,102443.69
2023-02-19T14:37:19.743Z,102455.28
2023-02-19T14:40:05.597Z,102450.00
2023-02-19T14:42:55.097Z,102460.63
2023-02-19T14:45:46.586Z,102447.25
2023-02-19T14:48:38.191Z,102454.94
2023-02-19T14:51:44.636Z,102451.19
2023-02-19T14:54:39.858Z,102451.94
2023-02-19T14:57:29.542Z,102438.94
2023-02-19T15:00:30.881Z,102441.53
2023-02-19T15:03:34.934Z,102444.13
2023-02-19T15:06:20.228Z,102447.53
2023-02-19T15:09:07.272Z,102435.50
2023-02-19T15:11:54.235Z,102437.47
2023-02-19T15:14:40.236Z,102441.88
2023-02-19T15:17:29.222Z,102450.72
2023-02-19T15:20:19.754Z,102437.47
2023-02-19T15:23:07.446Z,102440.34
2023-02-19T15:25:53.076Z,102425.28
2023-02-19T15:28:38.008Z,102417.00
2023-02-19T15:31:22.974Z,102423.91
2023-02-19T15:34:16.664Z,102397.84
2023-02-19T15:37:06.395Z,102417.06
2023-02-19T15:39:53.266Z,102429.66
2023-02-19T15:42:38.593Z,102391.94
2023-02-19T15:45:28.109Z,102431.53
2023-02-19T15:48:18.595Z,102419.81
2023-02-19T15:51:11.999Z,102419.97
2023-02-19T15:54:07.631Z,102408.66
2023-02-19T15:56:56.912Z,102424.00
2023-02-19T15:59:53.326Z,102414.38
2023-02-19T16:02:38.516Z,102386.56
2023-02-19T16:05:28.875Z,102410.78
2023-02-19T16:08:20.932Z,102410.94
2023-02-19T16:11:27.579Z,102383.47
2023-02-19T16:14:37.556Z,102397.41
2023-02-19T16:17:27.893Z,102407.28
2023-02-19T16:20:34.651Z,102396.16
2023-02-19T16:23:24.110Z,102375.88
2023-02-19T16:26:09.331Z,102390.91
2023-02-19T16:28:55.459Z,102395.38
2023-02-19T16:31:50.734Z,102388.66
2023-02-19T16:34:50.919Z,102385.41
2023-02-19T16:37:41.175Z,102391.72
2023-02-19T16:40:35.365Z,102392.72
2023-02-19T16:43:41.514Z,102358.94
2023-02-19T16:46:26.648Z,102388.91
2023-02-19T16:49:11.886Z,102383.06
2023-02-19T16:51:59.749Z,102374.63
2023-02-19T16:54:45.027Z,102370.69
2023-02-19T16:57:32.085Z,102371.69
2023-02-19T17:00:28.901Z,102384.38
2023-02-19T17:03:18.919Z,102383.38
2023-02-19T17:06:04.197Z,102385.66
2023-02-19T17:08:49.449Z,102377.22
2023-02-19T17:11:36.031Z,102373.19
2023-02-19T17:14:21.029Z,102388.28
2023-02-19T17:17:06.415Z,102382.53
2023-02-19T17:19:51.754Z,102381.09
2023-02-19T17:22:36.957Z,102381.53
2023-02-19T17:25:23.300Z,102381.09
2023-02-19T17:28:08.622Z,102394.38
2023-02-19T17:30:54.163Z,102392.03
2023-02-19T17:33:39.608Z,102395.06
2023-02-19T17:36:30.425Z,102410.16
2023-02-19T17:39:16.316Z,102403.59
2023-02-19T17:42:01.662Z,102401.28
2023-02-19T17:44:47.439Z,102400.19
2023-02-19T17:47:32.625Z,102404.75
2023-02-19T17:50:21.640Z,102417.00
2023-02-19T17:53:07.381Z,102420.94
2023-02-19T17:55:52.502Z,102395.06
2023-02-19T17:58:37.517Z,102437.38
2023-02-19T18:01:23.452Z,102435.19
2023-02-19T18:04:08.874Z,102431.09
2023-02-19T18:06:54.109Z,102432.06
2023-02-19T18:09:41.079Z,102408.13
2023-02-19T18:12:26.624Z,102423.53
2023-02-19T18:15:18.353Z,102418.66
2023-02-19T18:18:04.988Z,102432.09
2023-02-19T18:20:50.380Z,102421.81
2023-02-19T18:23:35.734Z,102415.09
2023-02-19T18:26:21.515Z,102404.78
2023-02-19T18:29:06.822Z,102405.94
2023-02-19T18:31:52.053Z,102412.19
2023-02-19T18:34:37.233Z,102415.03
2023-02-19T18:37:24.312Z,102392.84
2023-02-19T18:40:09.980Z,102417.94
2023-02-19T18:42:55.547Z,102419.53
2023-02-19T18:45:40.682Z,102416.28
2023-02-19T18:48:25.934Z,102408.78
2023-02-19T18:51:12.478Z,102414.22
2023-02-19T18:53:58.444Z,102413.50
2023-02-19T18:56:45.275Z,102407.59
2023-02-19T18:59:30.951Z,102411.13
2023-02-19T19:02:16.143Z,102421.72
2023-02-19T19:05:01.549Z,102408.88
2023-02-19T19:07:46.694Z,102389.84
2023-02-19T19:10:31.974Z,102388.34
2023-02-19T19:13:17.128Z,102392.84
2023-02-19T19:16:02.430Z,102386.69
2023-02-19T19:18:47.807Z,102386.69
2023-02-19T19:21:32.968Z,102381.78
2023-02-19T19:24:18.373Z,102377.63
2023-02-19T19:27:03.520Z,102374.22
2023-02-19T19:29:49.724Z,102382.16
2023-02-19T19:32:34.897Z,102370.97
2023-02-19T19:35:21.382Z,102367.44
2023-02-19T19:38:06.709Z,102380.53
2023-02-19T19:40:51.908Z,102390.25
2023-02-19T19:43:37.828Z,102389.50
2023-02-19T19:46:23.123Z,102382.63
2023-02-19T19:49:08.571Z,102392.16
2023-02-19T19:51:53.970Z,102389.78
2023-02-19T19:54:42.109Z,102385.63
2023-02-19T19:57:27.322Z,102384.31
2023-02-19T20:00:16.107Z,102410.06
2023-02-19T20:03:02.080Z,102416.13
2023-02-19T20:05:50.678Z,102427.53
2023-02-19T20:08:35.942Z,102418.75
2023-02-19T20:11:20.908Z,102410.44
2023-02-19T20:14:06.227Z,102415.88
2023-02-19T20:16:52.549Z,102416.06
2023-02-19T20:19:37.903Z,102412.81
2023-02-19T20:22:23.320Z,102424.88
2023-02-19T20:25:08.323Z,102420.56
2023-02-19T20:27:53.833Z,102422.47
2023-02-19T20:30:39.110Z,102399.59
2023-02-19T20:33:24.259Z,102416.97
2023-02-19T20:36:09.592Z,102407.63
2023-02-19T20:38:55.219Z,102416.44
2023-02-19T20:41:44.091Z,102416.63
2023-02-19T20:44:29.924Z,102421.88
2023-02-19T20:47:14.929Z,102384.75
2023-02-19T20:50:00.432Z,102381.34
2023-02-19T20:52:46.568Z,102375.22
2023-02-19T20:55:31.985Z,102398.50
2023-02-19T20:58:19.448Z,102400.34
2023-02-19T21:01:05.358Z,102399.41
2023-02-19T21:03:50.589Z,102376.34
2023-02-19T21:06:35.492Z,102401.41
2023-02-19T21:09:22.497Z,102399.72
2023-02-19T21:12:07.834Z,102393.84
2023-02-19T21:14:53.063Z,102394.53
2023-02-19T21:17:38.115Z,102399.75
2023-02-19T21:20:23.082Z,102389.41
2023-02-19T21:23:14.576Z,102381.78
2023-02-19T21:26:02.366Z,102394.56
2023-02-19T21:28:47.822Z,102387.84
2023-02-19T21:31:48.599Z,102396.47
2023-02-19T21:34:33.679Z,102396.47
2023-02-19T21:37:18.730Z,102401.69
2023-02-19T21:40:04.352Z,102389.00
2023-02-19T21:42:49.664Z,102401.06
2023-02-19T21:45:34.941Z,102389.88
2023-02-19T21:48:19.919Z,102382.28
2023-02-19T21:51:05.269Z,102395.31
2023-02-19T21:53:50.617Z,102395.31
2023-02-19T21:56:36.869Z,102384.22
2023-02-19T21:59:22.741Z,102401.44
2023-02-19T22:02:09.361Z,102406.78
2023-02-19T22:04:55.087Z,102405.88
2023-02-19T22:07:40.150Z,102411.09
2023-02-19T22:10:25.470Z,102410.06
2023-02-19T22:13:11.073Z,102393.94
2023-02-19T22:15:56.330Z,102422.44
2023-02-19T22:18:53.243Z,102420.72
2023-02-19T22:21:42.620Z,102411.28
2023-02-19T22:24:27.848Z,102421.78
2023-02-19T22:27:13.142Z,102416.63
2023-02-19T22:29:58.395Z,102417.66
2023-02-19T22:32:43.482Z,102423.88
2023-02-19T22:35:28.354Z,102422.13
2023-02-19T22:38:13.343Z,102432.63
2023-02-19T22:40:58.562Z,102427.44
2023-02-19T22:43:44.010Z,102431.97
2023-02-19T22:46:30.950Z,102430.16
2023-02-19T22:49:16.132Z,102434.56
2023-02-19T22:52:03.565Z,102432.06
2023-02-19T22:54:48.637Z,102432.91
2023-02-19T22:57:33.790Z,102435.44
2023-02-19T23:00:21.480Z,102415.06
2023-02-19T23:03:06.626Z,102430.41
2023-02-19T23:05:51.775Z,102430.47
2023-02-19T23:08:36.915Z,102432.19
2023-02-19T23:11:25.054Z,102411.66
2023-02-19T23:14:10.312Z,102427.88
2023-02-19T23:16:55.339Z,102418.50
2023-02-19T23:19:40.591Z,102431.44
2023-02-19T23:22:25.965Z,102401.44
2023-02-19T23:25:11.056Z,102422.09
2023-02-19T23:27:56.302Z,102422.97
2023-02-19T23:30:41.466Z,102415.16
2023-02-19T23:33:26.852Z,102418.50
2023-02-19T23:36:13.590Z,102419.47
2023-02-19T23:38:59.028Z,102422.25
2023-02-19T23:41:49.604Z,102414.50
2023-02-19T23:44:34.635Z,102400.78
2023-02-19T23:47:21.829Z,102400.03
2023-02-19T23:50:07.359Z,102399.13
2023-02-19T23:52:52.778Z,102404.41
2023-02-19T23:55:38.058Z,102397.63
2023-02-19T23:58:23.158Z,102390.72
